Time;durP1;ratioP1;P1;durP2;ratioP2;P2;SDS_P1;SDS_P2;PMS_P1;PMS_P2;Temp;Humidity;BMP_temperature;BMP_pressure;BME280_temperature;BME280_humidity;BME280_pressure;Samples;Min_cycle;Max_cycle;Signal;HPM_P1;HPM_P2
2021/11/27 00:00:22;;;;;;;9.43;7.93;;;2.70;99.90;;;;;;5070405;28;20028;-55
2021/11/27 00:02:48;;;;;;;10.57;7.82;;;2.70;99.90;;;;;;5070178;28;20083;-54
2021/11/27 00:05:15;;;;;;;14.07;8.98;;;2.70;99.90;;;;;;5070356;28;20400;-55
2021/11/27 00:07:41;;;;;;;11.32;7.82;;;2.70;99.90;;;;;;5070344;28;20103;-54
2021/11/27 00:10:09;;;;;;;13.23;8.18;;;2.60;99.90;;;;;;5071275;28;20101;-51
2021/11/27 00:12:35;;;;;;;11.93;8.50;;;2.70;99.90;;;;;;5071228;28;20021;-54
2021/11/27 00:15:01;;;;;;;12.30;7.85;;;2.70;99.90;;;;;;5070612;28;20387;-51
2021/11/27 00:17:27;;;;;;;13.10;8.27;;;2.70;99.90;;;;;;5070584;28;20535;-52
2021/11/27 00:19:52;;;;;;;9.82;7.28;;;2.60;99.90;;;;;;5070635;28;20039;-56
2021/11/27 00:22:18;;;;;;;11.90;8.13;;;2.70;99.90;;;;;;5070092;28;20028;-56
2021/11/27 00:24:44;;;;;;;12.60;8.70;;;2.70;99.90;;;;;;5070869;28;20450;-55
2021/11/27 00:27:10;;;;;;;13.32;8.27;;;2.70;99.90;;;;;;5071216;28;20021;-54
2021/11/27 00:29:35;;;;;;;10.25;7.93;;;2.70;99.90;;;;;;5070440;28;20075;-51
2021/11/27 00:32:01;;;;;;;11.65;9.25;;;2.70;99.90;;;;;;5070610;28;20036;-53
2021/11/27 00:34:26;;;;;;;10.88;8.15;;;2.70;99.90;;;;;;5069539;28;20029;-55
2021/11/27 00:36:53;;;;;;;11.30;8.38;;;2.70;99.90;;;;;;5051630;28;20514;-56
2021/11/27 00:39:19;;;;;;;11.48;8.30;;;2.70;99.90;;;;;;5070153;28;20060;-56
2021/11/27 00:41:45;;;;;;;11.07;8.73;;;2.70;99.90;;;;;;5070514;28;20086;-54
2021/11/27 00:44:11;;;;;;;11.27;8.15;;;2.70;99.90;;;;;;5070562;28;20025;-53
2021/11/27 00:46:37;;;;;;;13.70;8.73;;;2.70;99.90;;;;;;5070027;28;20429;-55
2021/11/27 00:49:03;;;;;;;12.00;8.55;;;2.70;99.90;;;;;;5069854;28;20033;-52
2021/11/27 00:51:29;;;;;;;10.80;7.88;;;2.70;99.90;;;;;;5070038;28;20016;-53
2021/11/27 00:53:56;;;;;;;11.73;8.23;;;2.70;99.90;;;;;;5069673;28;20147;-56
2021/11/27 00:56:22;;;;;;;10.73;8.40;;;2.70;99.90;;;;;;5069947;28;20502;-51
2021/11/27 00:58:48;;;;;;;12.82;8.45;;;2.70;99.90;;;;;;5069138;28;20024;-53
2021/11/27 01:01:19;;;;;;;14.43;8.65;;;2.70;99.90;;;;;;5069665;28;20385;-54
2021/11/27 01:03:46;;;;;;;12.32;8.63;;;2.70;99.90;;;;;;5070091;28;20101;-54
2021/11/27 01:06:16;;;;;;;12.77;8.68;;;2.70;99.90;;;;;;5069881;28;20036;-54
2021/11/27 01:08:42;;;;;;;9.80;7.47;;;2.60;99.90;;;;;;5070176;28;20064;-55
2021/11/27 01:11:16;;;;;;;13.02;8.93;;;2.70;99.90;;;;;;5069875;28;20029;-56
2021/11/27 01:13:45;;;;;;;14.73;9.32;;;2.70;99.90;;;;;;5035873;28;20025;-54
2021/11/27 01:16:11;;;;;;;13.65;8.82;;;2.70;99.90;;;;;;5044310;28;20515;-52
2021/11/27 01:18:38;;;;;;;12.90;9.32;;;2.60;99.90;;;;;;5069800;28;20087;-52
2021/11/27 01:21:07;;;;;;;13.82;8.57;;;2.60;99.90;;;;;;5061777;28;20520;-56
2021/11/27 01:23:33;;;;;;;13.15;9.35;;;2.60;99.90;;;;;;5069176;28;20035;-54
2021/11/27 01:25:59;;;;;;;10.95;8.32;;;2.60;99.90;;;;;;5052336;28;20531;-54
2021/11/27 01:28:25;;;;;;;13.50;8.90;;;2.70;99.90;;;;;;5069493;28;20031;-52
2021/11/27 01:30:55;;;;;;;12.57;9.18;;;2.70;99.90;;;;;;5051711;28;20025;-54
2021/11/27 01:33:21;;;;;;;14.43;9.30;;;2.60;99.90;;;;;;5069301;28;20108;-53
2021/11/27 01:35:48;;;;;;;10.82;9.32;;;2.60;99.90;;;;;;5068538;28;20078;-53
2021/11/27 01:38:15;;;;;;;12.40;9.50;;;2.60;99.90;;;;;;5069056;28;20024;-55
2021/11/27 01:40:41;;;;;;;11.38;8.88;;;2.60;99.90;;;;;;5069331;28;20035;-51
2021/11/27 01:43:08;;;;;;;14.85;9.93;;;2.60;99.90;;;;;;5069056;28;20032;-55
2021/11/27 01:45:35;;;;;;;11.88;9.07;;;2.60;99.90;;;;;;5068979;28;20451;-54
2021/11/27 01:48:07;;;;;;;14.63;9.13;;;2.60;99.90;;;;;;5068633;28;20087;-55
2021/11/27 01:50:38;;;;;;;16.33;9.38;;;2.70;99.90;;;;;;5069297;28;20463;-56
2021/11/27 01:53:05;;;;;;;14.68;9.20;;;2.70;99.90;;;;;;5069422;28;20492;-51
2021/11/27 01:55:30;;;;;;;11.15;9.13;;;2.70;99.90;;;;;;5061598;28;20021;-55
2021/11/27 01:57:57;;;;;;;15.57;9.48;;;2.60;99.90;;;;;;5064018;28;20121;-57
2021/11/27 02:00:28;;;;;;;14.48;10.27;;;2.60;99.90;;;;;;5066897;28;20078;-55
2021/11/27 02:02:54;;;;;;;13.30;9.25;;;2.70;99.90;;;;;;5066549;28;20676;-57
2021/11/27 02:05:21;;;;;;;13.75;9.65;;;2.70;99.90;;;;;;5068093;28;20033;-52
2021/11/27 02:07:49;;;;;;;13.60;9.35;;;2.70;99.90;;;;;;5068016;28;20021;-57
2021/11/27 02:10:16;;;;;;;12.60;9.40;;;2.60;99.90;;;;;;5068721;28;20078;-52
2021/11/27 02:12:42;;;;;;;12.93;9.55;;;2.70;99.90;;;;;;5049694;28;20013;-55
2021/11/27 02:15:09;;;;;;;14.63;8.80;;;2.70;99.90;;;;;;5068023;28;20062;-57
2021/11/27 02:17:36;;;;;;;14.45;10.02;;;2.70;99.90;;;;;;5067491;28;20025;-52
2021/11/27 02:20:02;;;;;;;12.02;9.27;;;2.60;99.90;;;;;;5068100;28;20051;-54
2021/11/27 02:22:30;;;;;;;14.27;9.65;;;2.70;99.90;;;;;;5067760;28;20490;-57
2021/11/27 02:24:56;;;;;;;13.07;9.48;;;2.60;99.90;;;;;;5067754;28;20514;-55
2021/11/27 02:27:21;;;;;;;12.85;9.52;;;2.60;99.90;;;;;;5067542;28;20021;-54
2021/11/27 02:29:47;;;;;;;13.00;9.02;;;2.70;99.90;;;;;;5062566;28;20702;-54
2021/11/27 02:32:13;;;;;;;16.45;10.30;;;2.70;99.90;;;;;;5044572;28;20107;-51
2021/11/27 02:34:38;;;;;;;18.58;10.70;;;2.70;99.90;;;;;;5066147;28;20044;-53
2021/11/27 02:37:06;;;;;;;19.73;10.70;;;2.70;99.90;;;;;;5067839;28;20086;-52
2021/11/27 02:39:33;;;;;;;16.08;10.20;;;2.70;99.90;;;;;;5046326;28;20025;-54
2021/11/27 02:41:58;;;;;;;20.27;11.35;;;2.60;99.90;;;;;;5054430;28;20031;-55
2021/11/27 02:44:31;;;;;;;17.90;10.85;;;2.70;99.90;;;;;;5067705;28;20024;-57
2021/11/27 02:46:59;;;;;;;19.83;11.38;;;2.60;99.90;;;;;;5050161;28;20031;-56
2021/11/27 02:49:25;;;;;;;18.27;11.48;;;2.70;99.90;;;;;;5067749;28;20024;-50
2021/11/27 02:51:51;;;;;;;17.05;11.00;;;2.60;99.90;;;;;;5049031;28;20075;-50
2021/11/27 02:54:17;;;;;;;18.60;12.05;;;2.60;99.90;;;;;;5067006;28;20492;-56
2021/11/27 02:56:43;;;;;;;17.17;11.10;;;2.60;99.90;;;;;;5067446;28;20445;-53
2021/11/27 02:59:14;;;;;;;18.48;11.60;;;2.60;99.90;;;;;;5067800;28;20296;-52
2021/11/27 03:01:43;;;;;;;20.80;11.27;;;2.60;99.90;;;;;;5064519;28;20028;-55
2021/11/27 03:04:09;;;;;;;21.08;12.07;;;2.60;99.90;;;;;;5067011;28;20108;-52
2021/11/27 03:06:35;;;;;;;15.05;10.52;;;2.60;99.90;;;;;;5067718;28;20055;-54
2021/11/27 03:09:05;;;;;;;22.20;11.73;;;2.60;99.90;;;;;;5066729;28;20032;-55
2021/11/27 03:11:31;;;;;;;21.83;11.80;;;2.50;99.90;;;;;;5067705;28;20119;-54
2021/11/27 03:13:57;;;;;;;17.50;11.35;;;2.50;99.90;;;;;;5049021;28;20154;-51
2021/11/27 03:16:27;;;;;;;19.58;12.35;;;2.60;99.90;;;;;;5067097;28;20024;-51
2021/11/27 03:18:53;;;;;;;20.10;12.27;;;2.60;99.90;;;;;;5048825;28;20059;-50
2021/11/27 03:21:19;;;;;;;22.23;11.32;;;2.60;99.90;;;;;;5063143;28;20020;-52
2021/11/27 03:23:44;;;;;;;17.27;12.18;;;2.60;99.90;;;;;;5057561;28;20397;-53
2021/11/27 03:26:10;;;;;;;17.52;11.70;;;2.50;99.90;;;;;;5067347;28;20063;-54
2021/11/27 03:28:36;;;;;;;18.45;11.63;;;2.60;99.90;;;;;;5048796;28;20093;-51
2021/11/27 03:31:02;;;;;;;20.30;12.90;;;2.50;99.90;;;;;;5067006;28;20025;-52
2021/11/27 03:33:27;;;;;;;17.40;11.68;;;2.50;99.90;;;;;;5067529;28;20074;-52
2021/11/27 03:35:53;;;;;;;21.27;13.50;;;2.50;99.90;;;;;;5067337;28;20025;-51
2021/11/27 03:38:18;;;;;;;18.08;12.10;;;2.50;99.90;;;;;;5066926;28;20037;-51
2021/11/27 03:40:44;;;;;;;16.73;11.93;;;2.50;99.90;;;;;;5066800;28;20037;-55
2021/11/27 03:43:10;;;;;;;18.92;11.95;;;2.50;99.90;;;;;;5066897;28;20082;-56
2021/11/27 03:45:36;;;;;;;19.67;12.27;;;2.50;99.90;;;;;;5066477;28;20417;-56
2021/11/27 03:48:11;;;;;;;18.40;12.82;;;2.50;99.90;;;;;;5048562;28;20077;-55
2021/11/27 03:50:45;;;;;;;19.50;12.20;;;2.50;99.90;;;;;;5066943;28;20105;-52
2021/11/27 03:53:32;;;;;;;21.45;12.32;;;2.50;99.90;;;;;;5046797;28;20025;-55
2021/11/27 03:56:00;;;;;;;17.67;11.40;;;2.50;99.90;;;;;;5053790;28;20024;-52
2021/11/27 03:58:26;;;;;;;19.63;11.93;;;2.50;99.90;;;;;;5048423;28;20399;-54
2021/11/27 04:00:53;;;;;;;16.65;11.23;;;2.50;99.90;;;;;;5049073;28;20048;-52
2021/11/27 04:03:20;;;;;;;17.85;11.88;;;2.50;99.90;;;;;;5066657;28;20075;-53
2021/11/27 04:05:52;;;;;;;19.60;12.48;;;2.50;99.90;;;;;;5048676;28;20044;-55
2021/11/27 04:08:19;;;;;;;18.33;12.10;;;2.50;99.90;;;;;;5048302;28;20029;-57
2021/11/27 04:10:45;;;;;;;19.20;11.75;;;2.50;99.90;;;;;;5066373;28;20103;-55
2021/11/27 04:13:11;;;;;;;19.33;11.73;;;2.50;99.90;;;;;;5066551;28;20036;-56
2021/11/27 04:15:37;;;;;;;16.85;11.35;;;2.50;99.90;;;;;;5048699;28;20090;-55
2021/11/27 04:18:03;;;;;;;19.80;12.20;;;2.50;99.90;;;;;;5048502;28;20520;-52
2021/11/27 04:20:29;;;;;;;19.30;12.60;;;2.40;99.90;;;;;;5067451;28;20488;-51
2021/11/27 04:22:55;;;;;;;18.10;11.77;;;2.50;99.90;;;;;;5067264;28;20049;-54
2021/11/27 04:25:21;;;;;;;19.85;12.25;;;2.50;99.90;;;;;;5066738;28;20029;-55
2021/11/27 04:27:48;;;;;;;15.68;10.98;;;2.50;99.90;;;;;;5066972;28;20025;-54
2021/11/27 04:30:17;;;;;;;16.70;11.63;;;2.40;99.90;;;;;;5066519;28;20028;-56
2021/11/27 04:32:44;;;;;;;20.58;12.68;;;2.40;99.90;;;;;;5066673;28;20060;-53
2021/11/27 04:35:11;;;;;;;18.15;12.10;;;2.40;99.90;;;;;;5049900;28;20029;-53
2021/11/27 04:37:37;;;;;;;25.10;13.60;;;2.40;99.90;;;;;;5070497;28;20558;-54
2021/11/27 04:40:04;;;;;;;19.45;13.35;;;2.40;99.90;;;;;;5070453;28;20040;-55
2021/11/27 04:42:30;;;;;;;18.80;12.45;;;2.50;99.90;;;;;;5070306;28;20044;-53
2021/11/27 04:44:55;;;;;;;19.30;11.73;;;2.40;99.90;;;;;;5070928;28;20037;-54
2021/11/27 04:47:21;;;;;;;18.23;12.18;;;2.40;99.90;;;;;;5070392;28;20037;-54
2021/11/27 04:49:47;;;;;;;19.25;12.73;;;2.40;99.90;;;;;;5070239;28;20054;-54
2021/11/27 04:52:13;;;;;;;19.48;12.32;;;2.50;99.90;;;;;;5069943;28;20032;-53
2021/11/27 04:54:38;;;;;;;20.90;12.75;;;2.50;99.90;;;;;;5069916;28;20044;-52
2021/11/27 04:57:05;;;;;;;19.02;12.55;;;2.50;99.90;;;;;;5052043;28;20032;-54
2021/11/27 04:59:31;;;;;;;17.58;12.52;;;2.50;99.90;;;;;;5069902;28;20066;-54
2021/11/27 05:01:56;;;;;;;18.63;12.52;;;2.40;99.90;;;;;;5070063;28;20037;-57
2021/11/27 05:04:22;;;;;;;23.15;13.93;;;2.40;99.90;;;;;;5069915;28;20082;-52
2021/11/27 05:06:48;;;;;;;22.27;13.57;;;2.40;99.90;;;;;;5051766;28;20025;-55
2021/11/27 05:09:13;;;;;;;17.30;12.45;;;2.40;99.90;;;;;;5068787;28;20167;-55
2021/11/27 05:11:40;;;;;;;20.20;12.43;;;2.40;99.90;;;;;;5051774;28;20488;-54
2021/11/27 05:14:05;;;;;;;19.98;12.35;;;2.40;99.90;;;;;;5069435;28;20032;-57
2021/11/27 05:16:32;;;;;;;20.20;12.90;;;2.40;99.90;;;;;;5069449;28;20059;-55
2021/11/27 05:18:58;;;;;;;19.73;12.40;;;2.30;99.90;;;;;;5069588;28;20159;-56
2021/11/27 05:21:24;;;;;;;20.48;12.55;;;2.30;99.90;;;;;;5069501;28;20039;-53
2021/11/27 05:23:50;;;;;;;21.30;13.02;;;2.30;99.90;;;;;;5069565;28;20024;-57
2021/11/27 05:26:16;;;;;;;24.35;13.18;;;2.20;99.90;;;;;;5069368;28;20104;-56
2021/11/27 05:28:42;;;;;;;21.50;12.18;;;2.20;99.90;;;;;;5068582;28;20132;-55
2021/11/27 05:31:09;;;;;;;21.00;13.38;;;2.20;99.90;;;;;;5069270;28;20037;-56
2021/11/27 05:36:10;;;;;;;21.40;13.30;;;2.10;99.90;;;;;;5069472;28;20043;-55
2021/11/27 05:38:35;;;;;;;19.50;13.52;;;2.10;99.90;;;;;;5068818;28;20036;-56
2021/11/27 05:41:01;;;;;;;22.45;13.10;;;2.10;99.90;;;;;;5051342;28;20642;-51
2021/11/27 05:43:26;;;;;;;21.25;12.13;;;2.00;99.90;;;;;;5069247;28;20051;-54
2021/11/27 05:45:52;;;;;;;20.30;12.52;;;2.00;99.90;;;;;;5050667;28;20039;-52
2021/11/27 05:48:17;;;;;;;19.85;12.50;;;2.00;99.90;;;;;;5068407;28;20047;-54
2021/11/27 05:50:43;;;;;;;20.77;12.68;;;1.90;99.90;;;;;;5068832;28;20060;-56
2021/11/27 05:53:10;;;;;;;19.88;12.48;;;1.90;99.90;;;;;;5068873;28;20078;-52
2021/11/27 05:55:35;;;;;;;19.52;12.20;;;1.90;99.90;;;;;;5068792;28;20025;-54
2021/11/27 05:58:01;;;;;;;21.95;12.73;;;1.90;99.90;;;;;;5068498;28;20103;-54
2021/11/27 06:00:27;;;;;;;22.23;13.73;;;1.90;99.90;;;;;;5069611;28;20024;-55
2021/11/27 06:02:53;;;;;;;22.35;13.57;;;1.90;99.90;;;;;;5068804;28;20036;-55
2021/11/27 06:05:18;;;;;;;18.88;11.65;;;1.80;99.90;;;;;;5069213;28;20519;-54
2021/11/27 06:07:44;;;;;;;19.02;12.05;;;1.80;99.90;;;;;;5068114;28;20020;-50
2021/11/27 06:10:11;;;;;;;20.42;12.88;;;1.80;99.90;;;;;;5068295;28;20595;-54
2021/11/27 06:12:37;;;;;;;17.30;12.95;;;1.80;99.90;;;;;;5068170;28;20111;-55
2021/11/27 06:15:04;;;;;;;20.50;13.80;;;1.80;99.90;;;;;;5068266;28;20039;-50
2021/11/27 06:17:29;;;;;;;17.90;12.82;;;1.80;99.90;;;;;;5049995;28;20044;-52
2021/11/27 06:19:55;;;;;;;19.25;12.15;;;1.80;99.90;;;;;;5068414;28;20031;-53
2021/11/27 06:22:22;;;;;;;21.23;12.98;;;1.80;99.90;;;;;;5067590;28;20059;-55
2021/11/27 06:24:49;;;;;;;20.05;12.80;;;1.80;99.90;;;;;;5068148;28;20064;-54
2021/11/27 06:27:14;;;;;;;20.30;14.00;;;1.80;99.90;;;;;;5068222;28;20078;-53
2021/11/27 06:29:40;;;;;;;23.08;14.02;;;1.80;99.90;;;;;;5030655;28;20041;-56
2021/11/27 06:32:09;;;;;;;22.92;14.13;;;1.80;99.90;;;;;;5065104;28;20052;-51
2021/11/27 06:34:35;;;;;;;20.05;12.75;;;1.90;99.90;;;;;;5064696;28;20082;-54
2021/11/27 06:37:00;;;;;;;23.27;13.85;;;1.90;99.90;;;;;;5063731;28;20101;-54
2021/11/27 06:39:26;;;;;;;20.27;12.95;;;1.90;99.90;;;;;;5067376;28;20040;-56
2021/11/27 06:41:52;;;;;;;22.70;14.57;;;1.90;99.90;;;;;;5067770;28;20033;-54
2021/11/27 06:44:17;;;;;;;22.00;13.57;;;1.90;99.90;;;;;;5067930;28;20090;-58
2021/11/27 06:46:43;;;;;;;21.75;13.38;;;1.90;99.90;;;;;;5066910;28;20067;-53
2021/11/27 06:49:09;;;;;;;19.92;13.85;;;1.90;99.90;;;;;;5067528;28;20551;-53
2021/11/27 06:51:34;;;;;;;24.95;13.95;;;1.80;99.90;;;;;;5067624;28;20025;-55
2021/11/27 06:54:00;;;;;;;21.23;13.52;;;1.90;99.90;;;;;;5066709;28;20632;-52
2021/11/27 06:56:25;;;;;;;22.80;13.45;;;1.80;99.90;;;;;;5067517;28;20059;-51
2021/11/27 06:58:51;;;;;;;22.98;13.95;;;1.90;99.90;;;;;;5066289;28;20181;-54
2021/11/27 07:01:17;;;;;;;19.10;12.52;;;1.90;99.90;;;;;;5067646;28;20025;-55
2021/11/27 07:03:42;;;;;;;21.10;12.40;;;1.90;99.90;;;;;;5072992;23;20057;-56
2021/11/27 07:06:08;;;;;;;19.95;13.63;;;1.90;99.90;;;;;;5027543;28;20037;-54
2021/11/27 07:08:33;;;;;;;24.50;13.65;;;1.90;99.90;;;;;;5026411;28;20545;-57
2021/11/27 07:10:59;;;;;;;24.60;14.10;;;1.90;99.90;;;;;;5009756;28;20501;-54
2021/11/27 07:13:24;;;;;;;23.60;13.75;;;2.00;99.90;;;;;;5027433;28;20025;-53
2021/11/27 07:15:50;;;;;;;21.58;14.32;;;1.90;99.90;;;;;;5027362;28;20025;-56
2021/11/27 07:18:16;;;;;;;19.92;13.05;;;1.90;99.90;;;;;;5009182;28;20022;-55
2021/11/27 07:20:42;;;;;;;22.40;14.75;;;2.00;99.90;;;;;;5027288;28;20057;-54
2021/11/27 07:23:09;;;;;;;25.48;15.18;;;2.00;99.90;;;;;;5027204;28;20104;-54
2021/11/27 07:25:35;;;;;;;24.30;14.95;;;2.00;99.90;;;;;;5027627;28;20017;-55
2021/11/27 07:28:01;;;;;;;23.70;15.25;;;2.00;99.90;;;;;;5027332;28;20030;-52
2021/11/27 07:30:26;;;;;;;22.52;14.25;;;2.00;99.90;;;;;;5026909;28;20018;-54
2021/11/27 07:32:52;;;;;;;22.73;13.55;;;2.00;99.90;;;;;;5026664;28;20036;-52
2021/11/27 07:35:18;;;;;;;27.13;14.85;;;2.00;99.90;;;;;;5027117;28;20398;-55
2021/11/27 07:37:43;;;;;;;23.92;14.32;;;2.00;99.90;;;;;;5009295;28;20029;-55
2021/11/27 07:40:09;;;;;;;20.48;13.48;;;2.00;99.90;;;;;;5009281;28;20029;-56
2021/11/27 07:42:34;;;;;;;23.20;13.52;;;2.00;99.90;;;;;;5008775;28;20669;-53
2021/11/27 07:45:00;;;;;;;23.55;14.85;;;2.00;99.90;;;;;;5023183;28;20168;-54
2021/11/27 07:47:25;;;;;;;20.75;13.07;;;2.00;99.90;;;;;;5027198;28;20026;-54
2021/11/27 07:49:51;;;;;;;22.92;13.98;;;2.00;99.90;;;;;;5027114;28;20477;-55
2021/11/27 07:52:21;;;;;;;22.95;13.65;;;2.00;99.90;;;;;;5026983;28;20456;-52
2021/11/27 07:54:47;;;;;;;22.25;14.38;;;2.00;99.90;;;;;;5026935;28;20026;-57
2021/11/27 07:57:12;;;;;;;22.77;14.10;;;2.00;99.90;;;;;;5026817;28;20056;-56
2021/11/27 07:59:38;;;;;;;22.17;13.48;;;2.00;99.90;;;;;;5026509;28;20025;-56
2021/11/27 08:02:04;;;;;;;27.98;15.55;;;2.00;99.90;;;;;;5026539;28;20037;-53
2021/11/27 08:04:29;;;;;;;22.38;14.65;;;2.00;99.90;;;;;;5026433;28;20033;-54
2021/11/27 08:06:55;;;;;;;23.30;15.48;;;2.00;99.90;;;;;;5026536;28;20025;-53
2021/11/27 08:09:21;;;;;;;21.15;14.48;;;2.00;99.90;;;;;;5027150;28;20026;-52
2021/11/27 08:11:46;;;;;;;22.75;14.80;;;2.00;99.90;;;;;;5031342;28;20036;-54
2021/11/27 08:14:12;;;;;;;24.27;15.85;;;2.10;99.90;;;;;;5013210;28;20025;-56
2021/11/27 08:16:38;;;;;;;26.40;15.18;;;2.00;99.90;;;;;;5030859;28;20071;-56
2021/11/27 08:19:03;;;;;;;23.52;14.05;;;2.10;99.90;;;;;;5030799;28;20033;-56
2021/11/27 08:21:29;;;;;;;22.83;14.60;;;2.10;99.90;;;;;;5012239;28;20036;-52
2021/11/27 08:23:55;;;;;;;23.63;15.98;;;2.10;99.90;;;;;;5030111;28;20099;-54
2021/11/27 08:26:21;;;;;;;22.65;14.65;;;2.10;99.90;;;;;;5030227;28;20061;-53
2021/11/27 08:28:47;;;;;;;22.80;15.68;;;2.10;99.90;;;;;;5029965;28;20045;-51
2021/11/27 08:31:12;;;;;;;23.42;14.88;;;2.10;99.90;;;;;;5030451;28;20030;-57
2021/11/27 08:33:38;;;;;;;24.63;15.88;;;2.10;99.90;;;;;;5029578;28;20036;-52
2021/11/27 08:36:04;;;;;;;25.90;15.95;;;2.10;99.90;;;;;;5029972;28;20024;-56
2021/11/27 08:38:30;;;;;;;26.30;16.08;;;2.10;99.90;;;;;;5029748;28;20057;-53
2021/11/27 08:40:57;;;;;;;24.52;15.23;;;2.20;99.90;;;;;;5030385;28;20021;-56
2021/11/27 08:43:23;;;;;;;23.67;15.40;;;2.10;99.90;;;;;;5030397;28;20030;-55
2021/11/27 08:45:49;;;;;;;23.63;15.38;;;2.20;99.90;;;;;;5030169;28;20029;-54
2021/11/27 08:48:16;;;;;;;24.27;16.63;;;2.20;99.90;;;;;;5029859;28;20025;-53
2021/11/27 08:50:42;;;;;;;24.20;15.10;;;2.20;99.90;;;;;;5030224;28;20621;-51
2021/11/27 08:53:08;;;;;;;24.45;15.88;;;2.20;99.90;;;;;;5029991;28;20022;-52
2021/11/27 08:55:34;;;;;;;24.67;14.98;;;2.20;99.90;;;;;;5012579;28;20032;-52
2021/11/27 08:57:59;;;;;;;29.30;16.98;;;2.20;99.90;;;;;;5029851;28;20028;-56
2021/11/27 09:00:25;;;;;;;27.83;16.52;;;2.20;99.90;;;;;;5012533;28;20662;-56
2021/11/27 09:02:56;;;;;;;23.88;16.77;;;2.30;99.90;;;;;;5029586;28;20082;-55
2021/11/27 09:05:23;;;;;;;26.85;15.27;;;2.30;99.90;;;;;;5030575;28;20028;-55
2021/11/27 09:07:49;;;;;;;28.10;16.17;;;2.30;99.90;;;;;;5012081;28;20159;-57
2021/11/27 09:10:14;;;;;;;30.20;15.80;;;2.40;99.90;;;;;;5030427;28;20096;-56
2021/11/27 09:12:40;;;;;;;25.00;15.52;;;2.40;99.90;;;;;;5026205;28;20026;-55
2021/11/27 09:15:06;;;;;;;23.23;15.38;;;2.40;99.90;;;;;;5029615;28;20560;-54
2021/11/27 09:17:32;;;;;;;26.60;17.42;;;2.40;99.90;;;;;;5029649;28;20586;-57
2021/11/27 09:19:57;;;;;;;27.25;17.02;;;2.50;99.90;;;;;;5030346;28;20033;-57
2021/11/27 09:22:23;;;;;;;26.48;16.33;;;2.60;99.90;;;;;;5030007;28;20448;-54
2021/11/27 09:24:49;;;;;;;27.40;17.67;;;2.70;99.90;;;;;;5030073;28;20057;-54
2021/11/27 09:27:14;;;;;;;25.27;16.73;;;2.80;99.90;;;;;;5012289;28;20401;-56
2021/11/27 09:29:40;;;;;;;31.50;17.88;;;2.80;99.90;;;;;;5007561;28;20029;-53
2021/11/27 09:32:08;;;;;;;28.02;17.75;;;2.90;99.90;;;;;;5030358;28;20025;-54
2021/11/27 09:34:33;;;;;;;25.30;15.48;;;2.90;99.90;;;;;;5012019;28;20049;-52
2021/11/27 09:37:00;;;;;;;23.63;15.45;;;3.00;99.90;;;;;;5029691;28;20473;-55
2021/11/27 09:39:26;;;;;;;26.55;15.70;;;3.00;99.90;;;;;;5029119;28;20079;-56
2021/11/27 09:41:52;;;;;;;23.30;16.33;;;3.00;99.90;;;;;;5029907;28;20018;-55
2021/11/27 09:44:18;;;;;;;25.75;16.77;;;3.00;99.90;;;;;;5029376;28;20108;-56
2021/11/27 09:46:45;;;;;;;23.75;15.63;;;3.00;99.90;;;;;;5029570;28;20030;-55
2021/11/27 09:49:21;;;;;;;23.73;15.57;;;3.00;99.90;;;;;;5029228;28;20044;-53
2021/11/27 09:51:47;;;;;;;23.30;15.68;;;3.00;99.90;;;;;;5029564;28;20026;-54
2021/11/27 09:54:17;;;;;;;23.75;16.67;;;3.00;99.90;;;;;;5029764;28;20030;-53
2021/11/27 09:56:43;;;;;;;24.58;16.13;;;3.00;99.90;;;;;;5029396;28;20488;-53
2021/11/27 09:59:09;;;;;;;26.83;17.63;;;3.00;99.90;;;;;;5012074;28;20063;-55
2021/11/27 10:01:36;;;;;;;24.50;16.08;;;3.00;99.90;;;;;;5026357;28;20080;-55
2021/11/27 10:04:06;;;;;;;22.45;15.52;;;3.00;99.90;;;;;;5021760;28;20038;-54
2021/11/27 10:06:35;;;;;;;23.70;15.57;;;3.00;99.90;;;;;;5005876;28;20116;-55
2021/11/27 10:09:06;;;;;;;22.27;15.13;;;2.90;99.90;;;;;;5028748;28;20033;-54
2021/11/27 10:11:32;;;;;;;22.52;15.00;;;3.00;99.90;;;;;;5029118;28;20013;-56
2021/11/27 10:13:58;;;;;;;20.30;14.93;;;3.00;99.90;;;;;;5028171;28;20026;-53
2021/11/27 10:16:24;;;;;;;26.17;15.25;;;3.00;99.90;;;;;;5028371;28;20061;-56
2021/11/27 10:19:03;;;;;;;21.27;15.00;;;3.00;99.90;;;;;;5010113;28;20033;-57
2021/11/27 10:21:28;;;;;;;24.23;15.98;;;3.00;99.90;;;;;;5027734;28;20105;-57
2021/11/27 10:23:54;;;;;;;24.55;15.70;;;3.10;99.90;;;;;;5027922;28;20108;-54
2021/11/27 10:26:35;;;;;;;22.13;14.80;;;3.10;99.90;;;;;;5027841;28;20037;-55
2021/11/27 10:29:14;;;;;;;23.08;14.88;;;3.10;99.90;;;;;;5026318;28;20163;-57
2021/11/27 10:31:41;;;;;;;24.38;15.77;;;3.10;99.90;;;;;;5009656;28;20033;-56
2021/11/27 10:34:07;;;;;;;26.52;15.98;;;3.10;99.90;;;;;;5026087;28;20493;-56
2021/11/27 10:36:33;;;;;;;21.17;14.93;;;3.10;99.90;;;;;;5026239;28;20034;-57
2021/11/27 10:39:07;;;;;;;24.38;16.00;;;3.10;99.90;;;;;;5020639;28;20026;-56
2021/11/27 10:41:37;;;;;;;26.55;15.55;;;3.00;99.90;;;;;;5027838;28;20148;-53
2021/11/27 10:44:08;;;;;;;21.50;15.25;;;3.00;99.90;;;;;;5010410;28;20040;-57
2021/11/27 10:46:36;;;;;;;24.30;15.45;;;3.00;99.90;;;;;;5027676;28;20029;-57
2021/11/27 10:49:05;;;;;;;24.15;15.27;;;3.10;99.90;;;;;;5009914;28;20169;-57
2021/11/27 10:51:31;;;;;;;26.08;15.60;;;3.10;99.90;;;;;;5028339;28;20033;-57
2021/11/27 10:54:04;;;;;;;23.05;15.30;;;3.10;99.90;;;;;;5027924;28;20025;-58
2021/11/27 10:56:50;;;;;;;21.63;14.98;;;3.10;99.90;;;;;;5028155;28;20021;-55
2021/11/27 10:59:17;;;;;;;21.83;15.07;;;3.00;99.90;;;;;;5022640;28;20032;-56
2021/11/27 11:02:02;;;;;;;24.20;14.52;;;3.10;99.90;;;;;;5009670;28;20608;-53
2021/11/27 11:04:28;;;;;;;22.38;15.02;;;3.10;99.90;;;;;;5026261;28;20044;-56
2021/11/27 11:07:17;;;;;;;24.02;14.75;;;3.10;99.90;;;;;;5026222;28;20021;-56
2021/11/27 11:10:06;;;;;;;19.98;14.18;;;3.10;99.90;;;;;;5027309;28;20045;-56
2021/11/27 11:12:43;;;;;;;26.40;15.20;;;3.10;99.90;;;;;;5026864;28;20022;-57
2021/11/27 11:15:28;;;;;;;23.40;14.82;;;3.10;99.90;;;;;;5027421;28;20465;-56
2021/11/27 11:18:27;;;;;;;20.45;15.00;;;3.10;99.90;;;;;;5027541;28;20058;-58
2021/11/27 11:20:59;;;;;;;19.95;14.27;;;3.10;99.90;;;;;;5027649;28;20029;-55
2021/11/27 11:23:25;;;;;;;21.80;14.25;;;3.10;99.90;;;;;;5027830;28;20017;-55
2021/11/27 11:25:55;;;;;;;20.48;14.88;;;3.20;99.90;;;;;;5027605;28;20033;-54
2021/11/27 11:28:22;;;;;;;22.48;14.75;;;3.10;99.90;;;;;;5009668;28;20030;-57
2021/11/27 11:30:50;;;;;;;25.02;16.98;;;3.10;99.90;;;;;;5027363;28;20029;-56
2021/11/27 11:33:17;;;;;;;23.38;14.63;;;3.20;99.90;;;;;;5027607;28;20043;-56
2021/11/27 11:35:44;;;;;;;21.92;14.82;;;3.20;99.90;;;;;;5027814;28;20523;-57
2021/11/27 11:38:12;;;;;;;25.95;15.52;;;3.20;99.90;;;;;;5027818;28;20529;-56
2021/11/27 11:40:39;;;;;;;22.80;15.45;;;3.20;99.90;;;;;;5010276;28;20040;-55
2021/11/27 11:43:05;;;;;;;22.42;14.60;;;3.10;99.90;;;;;;5027558;28;20060;-56
2021/11/27 11:45:32;;;;;;;22.90;14.23;;;3.10;99.90;;;;;;5012950;28;20588;-56
2021/11/27 11:47:58;;;;;;;23.40;14.80;;;3.10;99.90;;;;;;5031208;28;20030;-56
2021/11/27 11:50:26;;;;;;;22.77;14.95;;;3.20;99.90;;;;;;5031724;28;20075;-55
2021/11/27 11:53:10;;;;;;;22.70;13.95;;;3.10;99.90;;;;;;5031464;28;20029;-56
2021/11/27 11:55:37;;;;;;;23.20;14.57;;;3.20;99.90;;;;;;4993655;28;20072;-54
2021/11/27 11:58:03;;;;;;;25.50;15.45;;;3.20;99.90;;;;;;4995550;28;20468;-56
2021/11/27 12:00:33;;;;;;;21.80;14.70;;;3.20;99.90;;;;;;5031277;28;20460;-54
2021/11/27 12:03:10;;;;;;;27.10;15.30;;;3.20;99.90;;;;;;5030591;28;20033;-56
2021/11/27 12:05:55;;;;;;;22.95;13.88;;;3.20;99.90;;;;;;5009879;28;20041;-57
2021/11/27 12:08:49;;;;;;;22.92;14.52;;;3.20;99.90;;;;;;4998667;28;20049;-56
2021/11/27 12:11:46;;;;;;;21.00;14.23;;;3.10;99.90;;;;;;5031427;28;20095;-58
2021/11/27 12:14:21;;;;;;;16.80;13.05;;;3.10;99.90;;;;;;5030920;28;20021;-56
2021/11/27 12:17:16;;;;;;;19.27;12.35;;;3.10;99.90;;;;;;5030868;28;20034;-55
2021/11/27 12:20:03;;;;;;;16.13;12.57;;;3.10;99.90;;;;;;5012895;28;20029;-55
2021/11/27 12:22:37;;;;;;;18.63;11.80;;;3.10;99.90;;;;;;5030627;28;20740;-56
2021/11/27 12:25:13;;;;;;;18.17;12.10;;;3.00;99.90;;;;;;5030529;28;20507;-60
2021/11/27 12:28:02;;;;;;;18.35;12.80;;;3.00;99.90;;;;;;5012424;28;20120;-54
2021/11/27 12:30:50;;;;;;;17.35;12.55;;;3.00;99.90;;;;;;5000366;28;20028;-55
2021/11/27 12:33:49;;;;;;;21.52;12.65;;;3.00;99.90;;;;;;5029935;28;20501;-55
2021/11/27 12:36:31;;;;;;;18.00;12.00;;;3.00;99.90;;;;;;5029570;28;20052;-54
2021/11/27 12:39:11;;;;;;;16.98;11.77;;;2.90;99.90;;;;;;5007364;28;20094;-55
2021/11/27 12:41:52;;;;;;;17.38;11.85;;;2.90;99.90;;;;;;5026210;28;20033;-56
2021/11/27 12:44:40;;;;;;;14.82;10.38;;;2.80;99.90;;;;;;5024431;28;20026;-54